Rittushinmaru — JD4016 — position and weather

sailwx.info

Track history (hours):
 
Tides and Currents Weather Stations Pressure Air Temp Water Temp Dewpoint Dewpoint Depression Visibility Wind Speed Wind Dir Waves Ship Positions

Rittushinmaru

Last reported at 2017-Dec-11 15:40 UTC. Time now 2017-Dec-12 12:33 UTC.
Position N 33°52' E 135°01'.

Length 72 m; draft 3.5 m.

Type: Cargo ship. MMSI: 431007878.

Date/timePositionNaut miles runAvg speedWind from/ knotsBaromVisibWave heightAir tempDewpointWater temp
2017-Dec-11 15:40N 33°52' E 135°01'211.1
2017-Dec-11 15:30N 33°53' E 134°59'510.9
2017-Dec-11 15:00N 33°57' E 134°55'510.8
2017-Dec-11 14:30N 34°01' E 134°50'511.1
2017-Dec-11 14:01N 34°05' E 134°46'611.3
2017-Dec-11 13:30N 34°10' E 134°42'612.5
2017-Dec-11 13:01N 34°15' E 134°38'611.4
2017-Dec-11 12:30N 34°17' E 134°32'711.3
2017-Dec-11 11:54N 34°20' E 134°24'80 1.6
2017-Dec-09 10:45N 34°04' E 132°49'310.6
2017-Dec-09 10:29N 34°02' E 132°47'510.2
2017-Dec-09 10:01N 33°58' E 132°43'510.1
2017-Dec-09 09:30N 33°54' E 132°39'510.6
2017-Dec-09 09:00N 33°52' E 132°33'810.9
2017-Dec-09 08:17N 33°50' E 132°24'410.6
2017-Dec-09 07:57N 33°50' E 132°19'1310.9
2017-Dec-09 06:48N 33°46' E 132°05'711.3
2017-Dec-09 06:09N 33°45' E 131°56'211.7
2017-Dec-09 05:58N 33°46' E 131°54'511.6
2017-Dec-09 05:31N 33°46' E 131°47'611.7
2017-Dec-09 05:00N 33°47' E 131°40'611.5
2017-Dec-09 04:30N 33°48' E 131°34'611.2
2017-Dec-09 04:01N 33°50' E 131°27'611.2
2017-Dec-09 03:30N 33°51' E 131°20'510.9
2017-Dec-09 03:01N 33°51' E 131°14'510.5
2017-Dec-09 02:31N 33°54' E 131°08'510.8
2017-Dec-09 02:01N 33°57' E 131°03'5 9.4
2017-Dec-09 01:31N 33°57' E 130°57'4 8.4
2017-Dec-09 01:01N 33°55' E 130°53'510.9
2017-Dec-09 00:31N 33°58' E 130°47'510.9
2017-Dec-09 00:01N 33°57' E 130°40'510.7
2017-Dec-08 23:30N 33°56' E 130°34'5 9.5
2017-Dec-08 23:00N 33°55' E 130°29'510.1
2017-Dec-08 22:31N 33°51' E 130°25'510.3
2017-Dec-08 22:00N 33°47' E 130°21'5 9.8
2017-Dec-08 21:31N 33°43' E 130°17'4 8.1
2017-Dec-08 21:01N 33°39' E 130°18'510.8
2017-Dec-08 20:31N 33°37' E 130°24'0 0.4
2017-Dec-08 20:00N 33°37' E 130°24'0 0.0
2017-Dec-08 19:31N 33°37' E 130°24'0 0.0
2017-Dec-08 19:01N 33°37' E 130°24'0 0.0
2017-Dec-08 18:31N 33°37' E 130°24'0 0.0
2017-Dec-08 18:01N 33°37' E 130°24'0 0.0
2017-Dec-08 17:30N 33°37' E 130°24'0 0.0
2017-Dec-08 17:01N 33°37' E 130°24'0 0.0
2017-Dec-08 16:30N 33°37' E 130°24'0 0.0
2017-Dec-08 16:00N 33°37' E 130°24'0 0.0
2017-Dec-08 15:30N 33°37' E 130°24'0 0.0
2017-Dec-08 15:01N 33°37' E 130°24'0 0.0
2017-Dec-08 14:31N 33°37' E 130°24'0 0.0
2017-Dec-08 14:01N 33°37' E 130°24'0 0.0
2017-Dec-08 13:31N 33°37' E 130°24'0 0.0
2017-Dec-08 13:00N 33°37' E 130°24'0 0.0
2017-Dec-08 12:31N 33°37' E 130°24'0 0.0
2017-Dec-08 12:01N 33°37' E 130°24'0 0.0
2017-Dec-08 11:31N 33°37' E 130°24'0 0.0
2017-Dec-08 11:01N 33°37' E 130°24'0 0.0
2017-Dec-08 10:31N 33°37' E 130°24'0 0.0
2017-Dec-08 10:01N 33°37' E 130°24'0 0.0
2017-Dec-08 09:31N 33°37' E 130°24'0 0.0
2017-Dec-08 09:01N 33°37' E 130°24'0 0.0
2017-Dec-08 08:30N 33°37' E 130°24'0 0.0
2017-Dec-08 08:00N 33°37' E 130°24'0 0.0
2017-Dec-08 07:30N 33°37' E 130°24'0 0.0
2017-Dec-08 07:01N 33°37' E 130°24'0 0.0
2017-Dec-08 06:30N 33°37' E 130°24'0 0.0
2017-Dec-08 06:01N 33°37' E 130°24'0 0.0
2017-Dec-08 05:31N 33°37' E 130°24'0 0.0
2017-Dec-08 05:01N 33°37' E 130°24'0 0.0
2017-Dec-08 04:31N 33°37' E 130°24'0 0.0
2017-Dec-08 04:01N 33°37' E 130°24'0 0.0
2017-Dec-08 03:31N 33°37' E 130°24'0 0.0
2017-Dec-08 03:01N 33°37' E 130°24'0 0.0
2017-Dec-08 02:30N 33°37' E 130°24'0 0.0
2017-Dec-08 02:01N 33°37' E 130°24'0 0.0
2017-Dec-08 01:31N 33°37' E 130°24'0 0.0
2017-Dec-08 01:01N 33°37' E 130°24'0 0.0
2017-Dec-08 00:31N 33°37' E 130°24'0 0.0
2017-Dec-08 00:01N 33°37' E 130°24'0 0.0
2017-Dec-07 23:31N 33°37' E 130°24'0 0.0
2017-Dec-07 23:01N 33°37' E 130°24'0 0.0
2017-Dec-07 22:31N 33°37' E 130°24'0 0.0
2017-Dec-07 22:01N 33°37' E 130°24'0 0.0
2017-Dec-07 21:30N 33°37' E 130°24'0 0.0
2017-Dec-07 21:01N 33°37' E 130°24'0 0.0
2017-Dec-07 20:30N 33°37' E 130°24'0 0.0
2017-Dec-07 20:01N 33°37' E 130°24'0 0.0
2017-Dec-07 19:31N 33°37' E 130°24'0 0.0
2017-Dec-07 19:01N 33°37' E 130°24'0 0.0
2017-Dec-07 18:30N 33°37' E 130°24'0 0.0
2017-Dec-07 18:01N 33°37' E 130°24'0 0.0
2017-Dec-07 17:31N 33°37' E 130°24'0 0.0
2017-Dec-07 17:01N 33°37' E 130°24'0 0.0
2017-Dec-07 16:31N 33°37' E 130°24'0 0.0
2017-Dec-07 16:01N 33°37' E 130°24'0 0.0
2017-Dec-07 15:31N 33°37' E 130°24'0 0.0
2017-Dec-07 15:00N 33°37' E 130°24'0 0.0
2017-Dec-07 14:30N 33°37' E 130°24'0 0.0
2017-Dec-07 14:01N 33°37' E 130°24'0 0.0
2017-Dec-07 13:31N 33°37' E 130°24'0 0.0
2017-Dec-07 13:00N 33°37' E 130°24'0 0.0
2017-Dec-07 12:30N 33°37' E 130°24'0 0.0
2017-Dec-07 12:01N 33°37' E 130°24'0 0.0
2017-Dec-07 11:30N 33°37' E 130°24'0 0.0
2017-Dec-07 11:00N 33°37' E 130°24'0 0.0
2017-Dec-07 10:31N 33°37' E 130°24'0 0.0
2017-Dec-07 10:01N 33°37' E 130°24'0 0.0
2017-Dec-07 09:31N 33°37' E 130°24'0 0.0
2017-Dec-07 09:01N 33°37' E 130°24'0 0.0
2017-Dec-07 08:30N 33°37' E 130°24'0 0.0
2017-Dec-07 08:01N 33°37' E 130°24'0 0.0
2017-Dec-07 07:31N 33°37' E 130°24'0 0.0
2017-Dec-07 07:00N 33°37' E 130°24'0 0.0
2017-Dec-07 06:31N 33°37' E 130°24'0 0.2
2017-Dec-07 06:01N 33°37' E 130°24'4 8.0
2017-Dec-07 05:30N 33°38' E 130°20'5 9.5
2017-Dec-07 05:01N 33°42' E 130°16'510.2
2017-Dec-07 04:30N 33°46' E 130°20'510.5
2017-Dec-07 04:01N 33°50' E 130°24'5 9.8
2017-Dec-07 03:31N 33°54' E 130°28'5 9.7
2017-Dec-07 03:01N 33°57' E 130°33'510.9
2017-Dec-07 02:30N 33°58' E 130°39'611.1
2017-Dec-07 02:01N 33°58' E 130°46'611.3
2017-Dec-07 01:30N 33°56' E 130°52'5 9.1
2017-Dec-07 01:01N 33°58' E 130°58'510.7
2017-Dec-07 00:30N 33°57' E 131°04'611.9
2017-Dec-07 00:01N 33°54' E 131°10'611.9
2017-Dec-06 23:30N 33°51' E 131°17'611.9
2017-Dec-06 23:01N 33°50' E 131°24'611.8
2017-Dec-06 22:30N 33°49' E 131°30'611.9
2017-Dec-06 22:00N 33°48' E 131°38'611.7
2017-Dec-06 21:30N 33°47' E 131°45'  
2017-Dec-04 10:30N 34°31' E 135°24'0 0.0
2017-Dec-04 10:00N 34°31' E 135°24'0 0.0
2017-Dec-04 09:30N 34°31' E 135°24'0 0.0
2017-Dec-04 09:01N 34°31' E 135°24'0 0.0
2017-Dec-04 08:30N 34°31' E 135°24'0 0.0
2017-Dec-04 08:01N 34°31' E 135°24'0 0.0
2017-Dec-04 07:31N 34°31' E 135°24'0 0.0
2017-Dec-04 07:00N 34°31' E 135°24'0 0.0
2017-Dec-04 06:30N 34°31' E 135°24'0 0.0
2017-Dec-04 06:00N 34°31' E 135°24'0 0.0
2017-Dec-04 05:30N 34°31' E 135°24'0 0.0
2017-Dec-04 05:00N 34°31' E 135°24'0 0.0
2017-Dec-04 04:31N 34°31' E 135°24'0 0.0
2017-Dec-04 04:00N 34°31' E 135°24'0 0.0
2017-Dec-04 03:30N 34°31' E 135°24'0 0.0
2017-Dec-04 03:00N 34°31' E 135°24'0 0.0
2017-Dec-04 02:31N 34°31' E 135°24'0 0.0
2017-Dec-04 02:00N 34°31' E 135°24'0 0.0
2017-Dec-04 01:30N 34°31' E 135°24'0 0.0
2017-Dec-04 01:01N 34°31' E 135°24'0 0.0
2017-Dec-04 00:30N 34°31' E 135°24'0 0.0
2017-Dec-04 00:00N 34°31' E 135°24'0 0.0
2017-Dec-03 23:30N 34°31' E 135°24'0 0.0
2017-Dec-03 23:00N 34°31' E 135°24'0 0.0
2017-Dec-03 22:30N 34°31' E 135°24'0 0.0
2017-Dec-03 22:00N 34°31' E 135°24'0 0.0
2017-Dec-03 21:30N 34°31' E 135°24'0 0.0
2017-Dec-03 21:00N 34°31' E 135°24'0 0.0
2017-Dec-03 20:30N 34°31' E 135°24'0 0.0
2017-Dec-03 20:00N 34°31' E 135°24'0 0.0
2017-Dec-03 19:30N 34°31' E 135°24'0 0.0
2017-Dec-03 19:00N 34°31' E 135°24'0 0.0
2017-Dec-03 18:30N 34°31' E 135°24'0 0.0
2017-Dec-03 18:01N 34°31' E 135°24'0 0.0
2017-Dec-03 17:30N 34°31' E 135°24'0 0.0
2017-Dec-03 17:00N 34°31' E 135°24'0 0.0
2017-Dec-03 16:30N 34°31' E 135°24'0 0.0
2017-Dec-03 16:00N 34°31' E 135°24'0 0.0
2017-Dec-03 15:30N 34°31' E 135°24'0 0.0
2017-Dec-03 15:01N 34°31' E 135°24'0 0.0
2017-Dec-03 14:30N 34°31' E 135°24'0 0.0
2017-Dec-03 14:00N 34°31' E 135°24'0 0.0
2017-Dec-03 13:30N 34°31' E 135°24'0 0.0
2017-Dec-03 13:00N 34°31' E 135°24'0 0.0
2017-Dec-03 12:30N 34°31' E 135°24'0 0.0
2017-Dec-03 12:00N 34°31' E 135°24'0 0.0
2017-Dec-03 11:30N 34°31' E 135°24'0 0.0
2017-Dec-03 11:00N 34°31' E 135°24'0 0.0
2017-Dec-03 10:30N 34°31' E 135°24'0 0.0
2017-Dec-03 10:00N 34°31' E 135°24'0 0.0
2017-Dec-03 09:30N 34°31' E 135°24'0 0.0
2017-Dec-03 09:00N 34°31' E 135°24'0 0.0
2017-Dec-03 08:31N 34°31' E 135°24'0 0.0
2017-Dec-03 08:00N 34°31' E 135°24'0 0.0
2017-Dec-03 07:30N 34°31' E 135°24'0 0.0
2017-Dec-03 07:01N 34°31' E 135°24'0 0.0
2017-Dec-03 06:30N 34°31' E 135°24'0 0.0
2017-Dec-03 06:00N 34°31' E 135°24'0 0.0
2017-Dec-03 05:30N 34°31' E 135°24'0 0.0
2017-Dec-03 05:00N 34°31' E 135°24'0 0.0
2017-Dec-03 04:30N 34°31' E 135°24'0 0.0
2017-Dec-03 04:00N 34°31' E 135°24'0 0.0
2017-Dec-03 03:30N 34°31' E 135°24'0 0.0
2017-Dec-03 03:01N 34°31' E 135°24'0 0.0
2017-Dec-03 02:30N 34°31' E 135°24'0 0.0
2017-Dec-03 02:01N 34°31' E 135°24'0 0.0
2017-Dec-03 01:30N 34°31' E 135°24'0 0.0
2017-Dec-03 01:00N 34°31' E 135°24'0 0.0
2017-Dec-03 00:30N 34°31' E 135°24'1 2.9
2017-Dec-03 00:00N 34°32' E 135°24'510.4
2017-Dec-02 23:30N 34°30' E 135°18'510.9
2017-Dec-02 23:00N 34°27' E 135°12'611.4
2017-Dec-02 22:30N 34°23' E 135°07'510.9
2017-Dec-02 22:00N 34°19' E 135°02'510.4
2017-Dec-02 21:30N 34°15' E 134°60'611.4
2017-Dec-02 21:00N 34°09' E 135°01'611.4
2017-Dec-02 20:30N 34°03' E 135°02'611.2
2017-Dec-02 20:00N 33°58' E 135°02'196 8.9
2017-Dec-01 21:58N 34°36' E 138°54'1510.1
2017-Dec-01 20:27N 34°44' E 139°10'4 9.4
2017-Dec-01 20:00N 34°46' E 139°14'710.2
2017-Dec-01 19:21N 34°49' E 139°21'711.5
2017-Dec-01 18:43N 34°49' E 139°30'310.3
2017-Dec-01 18:27N 34°49' E 139°34'  
Track history (hours):
 
Tides and Currents Weather Stations Pressure Air Temp Water Temp Dewpoint Dewpoint Depression Visibility Wind Speed Wind Dir Waves Ship Positions

Rittushinmaru

Last reported at 2017-Dec-11 15:40 UTC. Time now 2017-Dec-12 12:33 UTC.
Position N 33°52' E 135°01'.

Length 72 m; draft 3.5 m.

Type: Cargo ship. MMSI: 431007878.

Date/timePositionNaut miles runAvg speedWind from/ knotsBaromVisibWave heightAir tempDewpointWater temp
2017-Dec-11 15:40N 33°52' E 135°01'211.1
2017-Dec-11 15:30N 33°53' E 134°59'510.9
2017-Dec-11 15:00N 33°57' E 134°55'510.8
2017-Dec-11 14:30N 34°01' E 134°50'511.1
2017-Dec-11 14:01N 34°05' E 134°46'611.3
2017-Dec-11 13:30N 34°10' E 134°42'612.5
2017-Dec-11 13:01N 34°15' E 134°38'611.4
2017-Dec-11 12:30N 34°17' E 134°32'711.3
2017-Dec-11 11:54N 34°20' E 134°24'80 1.6
2017-Dec-09 10:45N 34°04' E 132°49'310.6
2017-Dec-09 10:29N 34°02' E 132°47'510.2
2017-Dec-09 10:01N 33°58' E 132°43'510.1
2017-Dec-09 09:30N 33°54' E 132°39'510.6
2017-Dec-09 09:00N 33°52' E 132°33'810.9
2017-Dec-09 08:17N 33°50' E 132°24'410.6
2017-Dec-09 07:57N 33°50' E 132°19'1310.9
2017-Dec-09 06:48N 33°46' E 132°05'711.3
2017-Dec-09 06:09N 33°45' E 131°56'211.7
2017-Dec-09 05:58N 33°46' E 131°54'511.6
2017-Dec-09 05:31N 33°46' E 131°47'611.7
2017-Dec-09 05:00N 33°47' E 131°40'611.5
2017-Dec-09 04:30N 33°48' E 131°34'611.2
2017-Dec-09 04:01N 33°50' E 131°27'611.2
2017-Dec-09 03:30N 33°51' E 131°20'510.9
2017-Dec-09 03:01N 33°51' E 131°14'510.5
2017-Dec-09 02:31N 33°54' E 131°08'510.8
2017-Dec-09 02:01N 33°57' E 131°03'5 9.4
2017-Dec-09 01:31N 33°57' E 130°57'4 8.4
2017-Dec-09 01:01N 33°55' E 130°53'510.9
2017-Dec-09 00:31N 33°58' E 130°47'510.9
2017-Dec-09 00:01N 33°57' E 130°40'510.7
2017-Dec-08 23:30N 33°56' E 130°34'5 9.5
2017-Dec-08 23:00N 33°55' E 130°29'510.1
2017-Dec-08 22:31N 33°51' E 130°25'510.3
2017-Dec-08 22:00N 33°47' E 130°21'5 9.8
2017-Dec-08 21:31N 33°43' E 130°17'4 8.1
2017-Dec-08 21:01N 33°39' E 130°18'510.8
2017-Dec-08 20:31N 33°37' E 130°24'0 0.4
2017-Dec-08 20:00N 33°37' E 130°24'0 0.0
2017-Dec-08 19:31N 33°37' E 130°24'0 0.0
2017-Dec-08 19:01N 33°37' E 130°24'0 0.0
2017-Dec-08 18:31N 33°37' E 130°24'0 0.0
2017-Dec-08 18:01N 33°37' E 130°24'0 0.0
2017-Dec-08 17:30N 33°37' E 130°24'0 0.0
2017-Dec-08 17:01N 33°37' E 130°24'0 0.0
2017-Dec-08 16:30N 33°37' E 130°24'0 0.0
2017-Dec-08 16:00N 33°37' E 130°24'0 0.0
2017-Dec-08 15:30N 33°37' E 130°24'0 0.0
2017-Dec-08 15:01N 33°37' E 130°24'0 0.0
2017-Dec-08 14:31N 33°37' E 130°24'0 0.0
2017-Dec-08 14:01N 33°37' E 130°24'0 0.0
2017-Dec-08 13:31N 33°37' E 130°24'0 0.0
2017-Dec-08 13:00N 33°37' E 130°24'0 0.0
2017-Dec-08 12:31N 33°37' E 130°24'0 0.0
2017-Dec-08 12:01N 33°37' E 130°24'0 0.0
2017-Dec-08 11:31N 33°37' E 130°24'0 0.0
2017-Dec-08 11:01N 33°37' E 130°24'0 0.0
2017-Dec-08 10:31N 33°37' E 130°24'0 0.0
2017-Dec-08 10:01N 33°37' E 130°24'0 0.0
2017-Dec-08 09:31N 33°37' E 130°24'0 0.0
2017-Dec-08 09:01N 33°37' E 130°24'0 0.0
2017-Dec-08 08:30N 33°37' E 130°24'0 0.0
2017-Dec-08 08:00N 33°37' E 130°24'0 0.0
2017-Dec-08 07:30N 33°37' E 130°24'0 0.0
2017-Dec-08 07:01N 33°37' E 130°24'0 0.0
2017-Dec-08 06:30N 33°37' E 130°24'0 0.0
2017-Dec-08 06:01N 33°37' E 130°24'0 0.0
2017-Dec-08 05:31N 33°37' E 130°24'0 0.0
2017-Dec-08 05:01N 33°37' E 130°24'0 0.0
2017-Dec-08 04:31N 33°37' E 130°24'0 0.0
2017-Dec-08 04:01N 33°37' E 130°24'0 0.0
2017-Dec-08 03:31N 33°37' E 130°24'0 0.0
2017-Dec-08 03:01N 33°37' E 130°24'0 0.0
2017-Dec-08 02:30N 33°37' E 130°24'0 0.0
2017-Dec-08 02:01N 33°37' E 130°24'0 0.0
2017-Dec-08 01:31N 33°37' E 130°24'0 0.0
2017-Dec-08 01:01N 33°37' E 130°24'0 0.0
2017-Dec-08 00:31N 33°37' E 130°24'0 0.0
2017-Dec-08 00:01N 33°37' E 130°24'0 0.0
2017-Dec-07 23:31N 33°37' E 130°24'0 0.0
2017-Dec-07 23:01N 33°37' E 130°24'0 0.0
2017-Dec-07 22:31N 33°37' E 130°24'0 0.0
2017-Dec-07 22:01N 33°37' E 130°24'0 0.0
2017-Dec-07 21:30N 33°37' E 130°24'0 0.0
2017-Dec-07 21:01N 33°37' E 130°24'0 0.0
2017-Dec-07 20:30N 33°37' E 130°24'0 0.0
2017-Dec-07 20:01N 33°37' E 130°24'0 0.0
2017-Dec-07 19:31N 33°37' E 130°24'0 0.0
2017-Dec-07 19:01N 33°37' E 130°24'0 0.0
2017-Dec-07 18:30N 33°37' E 130°24'0 0.0
2017-Dec-07 18:01N 33°37' E 130°24'0 0.0
2017-Dec-07 17:31N 33°37' E 130°24'0 0.0
2017-Dec-07 17:01N 33°37' E 130°24'0 0.0
2017-Dec-07 16:31N 33°37' E 130°24'0 0.0
2017-Dec-07 16:01N 33°37' E 130°24'0 0.0
2017-Dec-07 15:31N 33°37' E 130°24'0 0.0
2017-Dec-07 15:00N 33°37' E 130°24'0 0.0
2017-Dec-07 14:30N 33°37' E 130°24'0 0.0
2017-Dec-07 14:01N 33°37' E 130°24'0 0.0
2017-Dec-07 13:31N 33°37' E 130°24'0 0.0
2017-Dec-07 13:00N 33°37' E 130°24'0 0.0
2017-Dec-07 12:30N 33°37' E 130°24'0 0.0
2017-Dec-07 12:01N 33°37' E 130°24'0 0.0
2017-Dec-07 11:30N 33°37' E 130°24'0 0.0
2017-Dec-07 11:00N 33°37' E 130°24'0 0.0
2017-Dec-07 10:31N 33°37' E 130°24'0 0.0
2017-Dec-07 10:01N 33°37' E 130°24'0 0.0
2017-Dec-07 09:31N 33°37' E 130°24'0 0.0
2017-Dec-07 09:01N 33°37' E 130°24'0 0.0
2017-Dec-07 08:30N 33°37' E 130°24'0 0.0
2017-Dec-07 08:01N 33°37' E 130°24'0 0.0
2017-Dec-07 07:31N 33°37' E 130°24'0 0.0
2017-Dec-07 07:00N 33°37' E 130°24'0 0.0
2017-Dec-07 06:31N 33°37' E 130°24'0 0.2
2017-Dec-07 06:01N 33°37' E 130°24'4 8.0
2017-Dec-07 05:30N 33°38' E 130°20'5 9.5
2017-Dec-07 05:01N 33°42' E 130°16'510.2
2017-Dec-07 04:30N 33°46' E 130°20'510.5
2017-Dec-07 04:01N 33°50' E 130°24'5 9.8
2017-Dec-07 03:31N 33°54' E 130°28'5 9.7
2017-Dec-07 03:01N 33°57' E 130°33'510.9
2017-Dec-07 02:30N 33°58' E 130°39'611.1
2017-Dec-07 02:01N 33°58' E 130°46'611.3
2017-Dec-07 01:30N 33°56' E 130°52'5 9.1
2017-Dec-07 01:01N 33°58' E 130°58'510.7
2017-Dec-07 00:30N 33°57' E 131°04'611.9
2017-Dec-07 00:01N 33°54' E 131°10'611.9
2017-Dec-06 23:30N 33°51' E 131°17'611.9
2017-Dec-06 23:01N 33°50' E 131°24'611.8
2017-Dec-06 22:30N 33°49' E 131°30'611.9
2017-Dec-06 22:00N 33°48' E 131°38'611.7
2017-Dec-06 21:30N 33°47' E 131°45'  
2017-Dec-04 10:30N 34°31' E 135°24'0 0.0
2017-Dec-04 10:00N 34°31' E 135°24'0 0.0
2017-Dec-04 09:30N 34°31' E 135°24'0 0.0
2017-Dec-04 09:01N 34°31' E 135°24'0 0.0
2017-Dec-04 08:30N 34°31' E 135°24'0 0.0
2017-Dec-04 08:01N 34°31' E 135°24'0 0.0
2017-Dec-04 07:31N 34°31' E 135°24'0 0.0
2017-Dec-04 07:00N 34°31' E 135°24'0 0.0
2017-Dec-04 06:30N 34°31' E 135°24'0 0.0
2017-Dec-04 06:00N 34°31' E 135°24'0 0.0
2017-Dec-04 05:30N 34°31' E 135°24'0 0.0
2017-Dec-04 05:00N 34°31' E 135°24'0 0.0
2017-Dec-04 04:31N 34°31' E 135°24'0 0.0
2017-Dec-04 04:00N 34°31' E 135°24'0 0.0
2017-Dec-04 03:30N 34°31' E 135°24'0 0.0
2017-Dec-04 03:00N 34°31' E 135°24'0 0.0
2017-Dec-04 02:31N 34°31' E 135°24'0 0.0
2017-Dec-04 02:00N 34°31' E 135°24'0 0.0
2017-Dec-04 01:30N 34°31' E 135°24'0 0.0
2017-Dec-04 01:01N 34°31' E 135°24'0 0.0
2017-Dec-04 00:30N 34°31' E 135°24'0 0.0
2017-Dec-04 00:00N 34°31' E 135°24'0 0.0
2017-Dec-03 23:30N 34°31' E 135°24'0 0.0
2017-Dec-03 23:00N 34°31' E 135°24'0 0.0
2017-Dec-03 22:30N 34°31' E 135°24'0 0.0
2017-Dec-03 22:00N 34°31' E 135°24'0 0.0
2017-Dec-03 21:30N 34°31' E 135°24'0 0.0
2017-Dec-03 21:00N 34°31' E 135°24'0 0.0
2017-Dec-03 20:30N 34°31' E 135°24'0 0.0
2017-Dec-03 20:00N 34°31' E 135°24'0 0.0
2017-Dec-03 19:30N 34°31' E 135°24'0 0.0
2017-Dec-03 19:00N 34°31' E 135°24'0 0.0
2017-Dec-03 18:30N 34°31' E 135°24'0 0.0
2017-Dec-03 18:01N 34°31' E 135°24'0 0.0
2017-Dec-03 17:30N 34°31' E 135°24'0 0.0
2017-Dec-03 17:00N 34°31' E 135°24'0 0.0
2017-Dec-03 16:30N 34°31' E 135°24'0 0.0
2017-Dec-03 16:00N 34°31' E 135°24'0 0.0
2017-Dec-03 15:30N 34°31' E 135°24'0 0.0
2017-Dec-03 15:01N 34°31' E 135°24'0 0.0
2017-Dec-03 14:30N 34°31' E 135°24'0 0.0
2017-Dec-03 14:00N 34°31' E 135°24'0 0.0
2017-Dec-03 13:30N 34°31' E 135°24'0 0.0
2017-Dec-03 13:00N 34°31' E 135°24'0 0.0
2017-Dec-03 12:30N 34°31' E 135°24'0 0.0
2017-Dec-03 12:00N 34°31' E 135°24'0 0.0
2017-Dec-03 11:30N 34°31' E 135°24'0 0.0
2017-Dec-03 11:00N 34°31' E 135°24'0 0.0
2017-Dec-03 10:30N 34°31' E 135°24'0 0.0
2017-Dec-03 10:00N 34°31' E 135°24'0 0.0
2017-Dec-03 09:30N 34°31' E 135°24'0 0.0
2017-Dec-03 09:00N 34°31' E 135°24'0 0.0
2017-Dec-03 08:31N 34°31' E 135°24'0 0.0
2017-Dec-03 08:00N 34°31' E 135°24'0 0.0
2017-Dec-03 07:30N 34°31' E 135°24'0 0.0
2017-Dec-03 07:01N 34°31' E 135°24'0 0.0
2017-Dec-03 06:30N 34°31' E 135°24'0 0.0
2017-Dec-03 06:00N 34°31' E 135°24'0 0.0
2017-Dec-03 05:30N 34°31' E 135°24'0 0.0
2017-Dec-03 05:00N 34°31' E 135°24'0 0.0
2017-Dec-03 04:30N 34°31' E 135°24'0 0.0
2017-Dec-03 04:00N 34°31' E 135°24'0 0.0
2017-Dec-03 03:30N 34°31' E 135°24'0 0.0
2017-Dec-03 03:01N 34°31' E 135°24'0 0.0
2017-Dec-03 02:30N 34°31' E 135°24'0 0.0
2017-Dec-03 02:01N 34°31' E 135°24'0 0.0
2017-Dec-03 01:30N 34°31' E 135°24'0 0.0
2017-Dec-03 01:00N 34°31' E 135°24'0 0.0
2017-Dec-03 00:30N 34°31' E 135°24'1 2.9
2017-Dec-03 00:00N 34°32' E 135°24'510.4
2017-Dec-02 23:30N 34°30' E 135°18'510.9
2017-Dec-02 23:00N 34°27' E 135°12'611.4
2017-Dec-02 22:30N 34°23' E 135°07'510.9
2017-Dec-02 22:00N 34°19' E 135°02'510.4
2017-Dec-02 21:30N 34°15' E 134°60'611.4
2017-Dec-02 21:00N 34°09' E 135°01'611.4
2017-Dec-02 20:30N 34°03' E 135°02'611.2
2017-Dec-02 20:00N 33°58' E 135°02'196 8.9
2017-Dec-01 21:58N 34°36' E 138°54'1510.1
2017-Dec-01 20:27N 34°44' E 139°10'4 9.4
2017-Dec-01 20:00N 34°46' E 139°14'710.2
2017-Dec-01 19:21N 34°49' E 139°21'711.5
2017-Dec-01 18:43N 34°49' E 139°30'310.3
2017-Dec-01 18:27N 34°49' E 139°34'  

Dump ship's entire track history